Time;durP1;ratioP1;P1;durP2;ratioP2;P2;SDS_P1;SDS_P2;PMS_P1;PMS_P2;Temp;Humidity;BMP_temperature;BMP_pressure;BME280_temperature;BME280_humidity;BME280_pressure;Samples;Min_cycle;Max_cycle;Signal;HPM_P1;HPM_P2
2022/12/02 00:47:31;;;;;;;47.67;26.20;;;8.40;55.60;;;;;;4840767;29;20059;-92
2022/12/02 00:49:57;;;;;;;42.10;25.13;;;8.60;55.80;;;;;;4825443;29;20034;-91
2022/12/02 00:52:22;;;;;;;49.42;26.58;;;8.70;55.00;;;;;;4825608;29;20038;-90
2022/12/02 00:54:50;;;;;;;43.13;23.92;;;8.40;55.50;;;;;;4822254;29;20113;-92
2022/12/02 00:57:16;;;;;;;61.33;35.03;;;8.30;55.30;;;;;;4849334;23;20040;-91
2022/12/02 00:59:42;;;;;;;84.57;43.85;;;8.10;56.00;;;;;;4919467;29;20027;-91
2022/12/02 01:02:07;;;;;;;71.47;39.28;;;8.30;56.40;;;;;;4919571;29;20028;-90
2022/12/02 01:04:33;;;;;;;61.67;31.60;;;8.60;56.00;;;;;;4918292;29;20031;-92
2022/12/02 01:06:59;;;;;;;59.00;32.05;;;8.40;55.60;;;;;;4900167;29;20032;-91
2022/12/02 01:09:25;;;;;;;61.63;33.25;;;8.30;56.10;;;;;;4900223;29;20063;-91
2022/12/02 01:11:50;;;;;;;58.97;31.85;;;8.30;56.00;;;;;;4920722;29;20744;-91
2022/12/02 01:14:16;;;;;;;57.60;32.00;;;8.10;56.30;;;;;;4918829;29;20110;-90
2022/12/02 01:16:42;;;;;;;49.70;28.45;;;8.10;56.90;;;;;;4903892;29;20028;-90
2022/12/02 01:19:07;;;;;;;45.25;27.10;;;8.20;56.50;;;;;;4904074;29;20031;-91
2022/12/02 01:21:33;;;;;;;50.72;26.17;;;8.10;56.60;;;;;;4903411;29;20028;-90
2022/12/02 01:23:59;;;;;;;55.40;29.45;;;8.20;56.30;;;;;;4903167;29;20452;-90
2022/12/02 01:26:24;;;;;;;59.17;31.85;;;8.30;56.10;;;;;;4903240;29;20032;-90
2022/12/02 01:28:50;;;;;;;53.50;30.83;;;8.40;56.30;;;;;;4903601;29;20108;-90
2022/12/02 01:31:16;;;;;;;60.15;33.38;;;8.30;56.70;;;;;;4903109;29;20380;-91
2022/12/02 01:33:42;;;;;;;61.75;31.85;;;8.70;56.40;;;;;;4903093;29;20040;-91
2022/12/02 01:36:09;;;;;;;57.33;30.75;;;8.80;56.20;;;;;;4903291;29;20028;-91
2022/12/02 01:38:35;;;;;;;51.05;29.50;;;9.00;56.50;;;;;;4914486;29;20024;-90
2022/12/02 01:41:00;;;;;;;56.22;30.17;;;9.20;56.00;;;;;;4921809;29;20046;-91
2022/12/02 01:43:26;;;;;;;44.13;25.27;;;9.10;55.90;;;;;;4922335;29;20110;-92
2022/12/02 01:45:53;;;;;;;53.55;28.20;;;9.10;55.60;;;;;;4922404;29;20398;-91
2022/12/02 01:48:19;;;;;;;47.63;26.27;;;8.90;56.00;;;;;;4917979;29;20047;-90
2022/12/02 01:50:46;;;;;;;45.53;24.85;;;9.00;55.80;;;;;;4911690;29;20098;-90
2022/12/02 01:53:12;;;;;;;75.10;40.35;;;9.20;55.60;;;;;;4921942;29;20123;-89
2022/12/02 01:55:38;;;;;;;45.80;26.08;;;9.30;55.70;;;;;;4921686;29;20151;-90
2022/12/02 01:58:04;;;;;;;47.00;26.30;;;9.20;55.50;;;;;;4915542;29;20048;-91
2022/12/02 02:00:30;;;;;;;45.83;26.27;;;8.90;55.90;;;;;;4902982;29;20027;-91
2022/12/02 02:02:56;;;;;;;48.45;26.85;;;8.80;55.80;;;;;;4902508;29;20020;-90
2022/12/02 02:05:25;;;;;;;47.90;25.55;;;8.70;55.60;;;;;;4911518;29;20023;-90
2022/12/02 02:07:56;;;;;;;52.55;27.23;;;8.60;56.10;;;;;;4921612;29;20467;-90
2022/12/02 02:10:24;;;;;;;48.30;26.92;;;8.50;56.10;;;;;;4921500;29;20630;-90
2022/12/02 02:12:53;;;;;;;57.53;27.15;;;8.40;56.50;;;;;;4921880;29;20040;-89
2022/12/02 02:15:20;;;;;;;46.70;25.77;;;8.60;56.10;;;;;;4921442;29;20079;-90
2022/12/02 02:17:46;;;;;;;48.30;26.60;;;8.40;56.40;;;;;;4921530;29;20042;-90
2022/12/02 02:20:16;;;;;;;47.50;26.23;;;8.40;56.60;;;;;;4921356;29;20019;-89
2022/12/02 02:23:05;;;;;;;50.88;26.80;;;8.30;57.00;;;;;;4921800;29;20028;-89
2022/12/02 02:25:32;;;;;;;47.67;26.15;;;8.00;57.10;;;;;;4904799;29;20055;-89
2022/12/02 02:28:00;;;;;;;45.75;25.65;;;8.00;57.20;;;;;;4902265;29;20126;-88
2022/12/02 02:30:32;;;;;;;46.42;24.40;;;8.00;56.90;;;;;;4902184;29;20086;-89
2022/12/02 02:33:04;;;;;;;42.80;25.45;;;8.00;57.30;;;;;;4902298;29;20028;-89
2022/12/02 02:35:32;;;;;;;43.20;23.20;;;8.00;57.30;;;;;;4901999;29;20056;-88
2022/12/02 02:37:58;;;;;;;43.97;24.05;;;8.00;57.50;;;;;;4902324;29;20028;-89
2022/12/02 02:40:25;;;;;;;45.40;22.90;;;8.10;57.40;;;;;;4902114;29;20020;-88
2022/12/02 02:42:54;;;;;;;44.40;24.15;;;8.20;57.50;;;;;;4902220;29;20499;-89
2022/12/02 02:45:21;;;;;;;42.78;23.92;;;8.20;57.00;;;;;;4902322;29;20016;-89
2022/12/02 02:47:48;;;;;;;40.58;21.42;;;8.20;57.40;;;;;;4901826;29;20036;-90
2022/12/02 02:50:15;;;;;;;41.97;22.25;;;8.20;57.00;;;;;;4902166;29;20052;-87
2022/12/02 02:52:41;;;;;;;37.20;20.92;;;8.20;57.10;;;;;;4901994;29;20032;-87
2022/12/02 02:55:08;;;;;;;43.10;21.23;;;8.40;57.10;;;;;;4907961;29;20020;-87
2022/12/02 02:57:35;;;;;;;39.95;22.00;;;8.50;57.00;;;;;;4901496;29;20044;-87
2022/12/02 03:00:04;;;;;;;38.47;21.85;;;8.80;56.60;;;;;;4901825;29;20028;-88
2022/12/02 03:02:30;;;;;;;41.25;21.10;;;9.00;56.30;;;;;;4913405;29;20118;-89
2022/12/02 03:04:56;;;;;;;39.30;22.75;;;9.20;55.90;;;;;;4920471;29;20034;-89
2022/12/02 03:07:21;;;;;;;39.83;22.30;;;9.20;55.90;;;;;;4920870;29;20159;-88
2022/12/02 03:09:48;;;;;;;41.22;22.75;;;9.30;55.60;;;;;;4919847;29;20099;-88
2022/12/02 03:12:14;;;;;;;41.45;22.67;;;9.40;55.30;;;;;;4920247;29;20019;-88
2022/12/02 03:14:40;;;;;;;41.97;23.40;;;9.10;55.50;;;;;;4920676;29;20026;-89
2022/12/02 03:17:06;;;;;;;43.58;23.90;;;9.10;55.60;;;;;;4920304;29;20027;-89
2022/12/02 03:19:33;;;;;;;46.55;24.92;;;9.20;55.80;;;;;;4906043;29;20519;-87
2022/12/02 03:22:00;;;;;;;53.90;27.67;;;9.30;55.80;;;;;;4901336;29;20028;-89
2022/12/02 03:24:26;;;;;;;47.03;25.40;;;9.30;56.40;;;;;;4901457;29;20129;-89
2022/12/02 03:26:52;;;;;;;44.15;22.75;;;9.30;55.50;;;;;;4901448;29;20088;-88
2022/12/02 03:29:19;;;;;;;50.50;26.33;;;9.00;55.90;;;;;;4913271;29;20024;-87
2022/12/02 03:31:45;;;;;;;54.33;28.02;;;8.90;56.50;;;;;;4919949;29;20023;-88
2022/12/02 03:34:11;;;;;;;64.93;29.88;;;9.10;56.30;;;;;;4919715;29;20019;-88
2022/12/02 03:36:37;;;;;;;63.72;31.02;;;9.30;55.80;;;;;;4920133;29;20078;-88
2022/12/02 03:39:19;;;;;;;57.88;30.05;;;9.20;56.10;;;;;;4909625;29;20051;-88
2022/12/02 03:41:46;;;;;;;58.22;28.73;;;8.80;56.70;;;;;;4901231;29;20123;-88
2022/12/02 03:44:13;;;;;;;47.22;25.50;;;9.00;56.80;;;;;;4901417;29;20028;-87
2022/12/02 03:46:39;;;;;;;43.25;24.38;;;9.10;56.70;;;;;;4901112;29;20028;-88
2022/12/02 03:49:04;;;;;;;49.63;26.83;;;9.00;57.60;;;;;;4913407;29;20028;-88
2022/12/02 03:51:31;;;;;;;51.08;28.55;;;9.20;57.40;;;;;;4920042;29;20023;-88
2022/12/02 03:53:58;;;;;;;48.92;27.55;;;9.50;56.70;;;;;;4919964;29;20410;-89
2022/12/02 03:56:24;;;;;;;50.75;27.67;;;9.70;56.10;;;;;;4909442;29;20043;-88
2022/12/02 03:58:51;;;;;;;46.97;26.73;;;9.60;56.40;;;;;;4919241;29;20051;-89
2022/12/02 04:01:17;;;;;;;50.08;26.50;;;9.60;55.90;;;;;;4919990;29;20038;-89
2022/12/02 04:03:43;;;;;;;51.50;27.70;;;9.80;55.60;;;;;;4919730;29;20020;-89
2022/12/02 04:06:09;;;;;;;51.67;26.02;;;9.90;55.20;;;;;;4911682;29;20032;-89
2022/12/02 04:08:35;;;;;;;53.58;27.40;;;9.60;55.30;;;;;;4900813;29;20040;-89
2022/12/02 04:11:02;;;;;;;47.47;26.38;;;9.70;55.60;;;;;;4900925;29;20047;-89
2022/12/02 04:13:27;;;;;;;49.67;26.65;;;9.50;56.00;;;;;;4900913;29;20027;-90
2022/12/02 04:15:53;;;;;;;48.55;26.83;;;9.40;56.00;;;;;;4900784;29;20020;-89
2022/12/02 04:18:19;;;;;;;47.22;25.98;;;9.20;56.40;;;;;;4916732;29;20163;-90
2022/12/02 04:20:45;;;;;;;45.10;25.02;;;9.10;56.40;;;;;;4917240;29;20021;-89
2022/12/02 04:23:10;;;;;;;52.45;26.13;;;9.00;56.70;;;;;;4916558;29;20027;-89
2022/12/02 04:25:36;;;;;;;48.10;26.25;;;8.90;57.20;;;;;;4916867;29;21656;-89
2022/12/02 04:28:02;;;;;;;51.55;28.52;;;8.90;57.70;;;;;;4900817;29;20420;-89
2022/12/02 04:30:28;;;;;;;56.35;29.65;;;9.30;57.20;;;;;;4900709;29;20027;-88
2022/12/02 04:32:56;;;;;;;52.60;28.65;;;9.50;56.70;;;;;;4900738;29;20028;-89
2022/12/02 04:35:22;;;;;;;51.38;28.98;;;9.70;56.20;;;;;;4900597;29;20028;-88
2022/12/02 04:37:49;;;;;;;51.50;26.35;;;9.70;56.70;;;;;;4919243;29;20042;-87
2022/12/02 04:40:15;;;;;;;49.15;27.40;;;9.90;56.30;;;;;;4919218;29;20020;-89
2022/12/02 04:42:41;;;;;;;46.35;26.05;;;10.00;56.20;;;;;;4919757;29;20032;-89
2022/12/02 04:45:07;;;;;;;49.08;26.33;;;10.00;55.90;;;;;;4919022;29;20026;-89
2022/12/02 04:47:33;;;;;;;46.17;25.58;;;9.90;55.80;;;;;;4923331;29;20046;-90
2022/12/02 04:49:59;;;;;;;40.40;24.02;;;9.80;56.20;;;;;;4922953;29;20024;-90
2022/12/02 04:52:24;;;;;;;44.45;24.63;;;9.90;55.80;;;;;;4923110;29;20024;-88
2022/12/02 04:54:50;;;;;;;47.00;25.25;;;9.90;55.70;;;;;;4922941;29;20134;-89
2022/12/02 04:57:16;;;;;;;42.88;25.13;;;10.00;55.80;;;;;;4904476;29;20559;-89
2022/12/02 04:59:41;;;;;;;49.25;26.60;;;10.00;55.60;;;;;;4903998;29;20028;-89
2022/12/02 05:02:14;;;;;;;46.28;26.45;;;9.70;56.10;;;;;;4904040;29;20124;-88
2022/12/02 05:04:40;;;;;;;50.60;26.70;;;9.80;56.20;;;;;;4903739;29;20038;-87
2022/12/02 05:07:06;;;;;;;46.78;25.35;;;9.70;56.20;;;;;;4903856;29;20032;-88
2022/12/02 05:09:32;;;;;;;46.05;25.67;;;9.40;56.50;;;;;;4903520;29;20039;-89
2022/12/02 05:11:58;;;;;;;50.35;26.50;;;9.20;57.10;;;;;;4904052;29;20042;-88
2022/12/02 05:14:24;;;;;;;52.72;27.58;;;9.30;57.20;;;;;;4903689;29;20082;-89
2022/12/02 05:16:50;;;;;;;49.97;26.95;;;9.60;56.80;;;;;;4903750;29;20471;-89
2022/12/02 05:19:16;;;;;;;48.55;26.42;;;9.70;56.50;;;;;;4910898;29;20032;-88
2022/12/02 05:21:41;;;;;;;48.72;25.45;;;9.60;56.20;;;;;;4903474;29;20412;-89
2022/12/02 05:24:07;;;;;;;47.35;25.40;;;9.60;56.70;;;;;;4903746;29;20032;-88
2022/12/02 05:26:33;;;;;;;42.70;25.88;;;9.50;56.70;;;;;;4903531;29;20105;-88
2022/12/02 05:28:59;;;;;;;48.80;26.90;;;9.50;56.90;;;;;;4903494;29;20123;-88
2022/12/02 05:31:24;;;;;;;46.42;26.02;;;9.70;57.10;;;;;;4921409;29;20027;-88
2022/12/02 05:33:50;;;;;;;44.67;25.38;;;9.70;56.30;;;;;;4922210;29;20031;-87
2022/12/02 05:36:16;;;;;;;44.78;24.35;;;9.60;56.90;;;;;;4922132;29;20086;-89
2022/12/02 05:38:42;;;;;;;40.03;23.67;;;9.40;57.40;;;;;;4922729;29;20039;-87
2022/12/02 05:41:07;;;;;;;44.65;26.00;;;9.50;57.30;;;;;;4906787;29;20028;-88
2022/12/02 05:43:39;;;;;;;44.97;25.27;;;9.50;57.20;;;;;;4903026;29;20127;-88
2022/12/02 05:46:26;;;;;;;45.47;24.58;;;9.40;57.30;;;;;;4903079;29;20028;-87
2022/12/02 05:48:53;;;;;;;42.50;25.42;;;9.70;57.30;;;;;;4902729;29;20052;-87
2022/12/02 05:51:20;;;;;;;46.85;25.45;;;9.90;56.40;;;;;;4902898;29;20032;-89
2022/12/02 05:53:48;;;;;;;43.97;25.13;;;9.80;56.50;;;;;;4903051;29;20463;-90
2022/12/02 05:56:26;;;;;;;47.00;25.52;;;9.70;56.60;;;;;;4902604;29;20028;-87
2022/12/02 05:58:58;;;;;;;44.58;26.27;;;9.70;57.10;;;;;;4902912;29;20399;-87
2022/12/02 06:01:40;;;;;;;43.72;24.98;;;9.60;56.90;;;;;;4902574;29;20032;-87
2022/12/02 06:04:13;;;;;;;55.50;28.98;;;9.80;57.20;;;;;;4902749;29;20032;-88
2022/12/02 06:06:39;;;;;;;40.90;23.83;;;9.90;57.00;;;;;;4902576;29;20507;-87
2022/12/02 06:09:17;;;;;;;50.90;27.52;;;9.90;56.20;;;;;;4906674;29;20056;-88
2022/12/02 06:11:44;;;;;;;53.20;27.95;;;10.00;56.60;;;;;;4902623;29;20032;-87
2022/12/02 06:14:17;;;;;;;47.72;26.58;;;10.00;56.20;;;;;;4902438;29;20024;-89
2022/12/02 06:16:55;;;;;;;54.35;27.90;;;10.00;56.10;;;;;;4902895;29;20034;-88
2022/12/02 06:19:26;;;;;;;45.63;25.20;;;9.80;56.80;;;;;;4902847;29;20036;-86
2022/12/02 06:21:52;;;;;;;;;;;9.70;56.90;;;;;;4902904;29;20028;-87
2022/12/02 06:24:24;;;;;;;59.40;29.40;;;9.90;56.70;;;;;;4902191;29;19931;-87
2022/12/02 06:26:52;;;;;;;49.50;28.90;;;10.00;56.60;;;;;;4901959;29;20058;-86
2022/12/02 06:29:19;;;;;;;57.92;30.90;;;10.10;56.70;;;;;;4911140;29;20083;-88
2022/12/02 06:31:45;;;;;;;56.65;30.90;;;10.20;56.40;;;;;;4908161;29;20024;-89
2022/12/02 06:34:40;;;;;;;71.32;36.97;;;10.20;56.40;;;;;;4906704;29;20032;-89
2022/12/02 06:37:28;;;;;;;55.85;32.30;;;10.00;57.10;;;;;;4902205;29;20119;-90
2022/12/02 06:39:59;;;;;;;67.75;35.17;;;10.20;56.60;;;;;;4912932;29;20127;-88
2022/12/02 06:42:34;;;;;;;66.50;36.38;;;10.20;56.60;;;;;;4917994;29;20028;-88
2022/12/02 06:45:19;;;;;;;64.05;34.15;;;10.40;56.70;;;;;;4908241;29;20484;-86
2022/12/02 06:48:00;;;;;;;66.15;34.35;;;10.60;56.30;;;;;;4901893;29;20040;-86
2022/12/02 06:50:37;;;;;;;65.13;33.17;;;10.40;56.30;;;;;;4917717;29;20051;-85
2022/12/02 06:53:15;;;;;;;60.58;32.47;;;10.40;56.30;;;;;;4920984;29;20056;-86
2022/12/02 06:55:42;;;;;;;60.95;31.77;;;10.40;56.50;;;;;;4920642;29;20036;-85
2022/12/02 06:58:28;;;;;;;59.75;32.08;;;10.40;56.70;;;;;;4911251;29;20062;-87
2022/12/02 07:01:07;;;;;;;61.00;32.03;;;10.20;56.40;;;;;;4901506;29;20114;-85
2022/12/02 07:03:37;;;;;;;58.03;31.30;;;9.90;57.40;;;;;;4917195;29;20032;-89
2022/12/02 07:06:14;;;;;;;60.97;32.22;;;10.10;57.20;;;;;;4916485;29;20032;-87
2022/12/02 07:08:40;;;;;;;57.80;32.00;;;10.10;57.40;;;;;;4902720;29;20407;-87
2022/12/02 07:11:49;;;;;;;61.53;33.75;;;10.30;57.10;;;;;;4920333;29;20497;-88
2022/12/02 07:14:42;;;;;;;56.38;31.42;;;10.40;56.60;;;;;;4903789;29;20031;-86
2022/12/02 07:17:28;;;;;;;59.65;34.65;;;10.60;56.50;;;;;;4912806;29;20024;-87
2022/12/02 07:20:06;;;;;;;72.65;40.05;;;10.60;56.30;;;;;;4907357;29;20445;-87
2022/12/02 07:23:00;;;;;;;68.15;37.38;;;10.80;56.50;;;;;;4909813;29;20471;-88
2022/12/02 07:25:40;;;;;;;78.32;41.33;;;10.80;55.90;;;;;;4906768;29;20055;-88
2022/12/02 07:28:18;;;;;;;;;;;10.90;56.20;;;;;;4901946;29;20044;-86
2022/12/02 07:30:49;;;;;;;64.82;33.78;;;11.00;56.00;;;;;;4903771;29;19907;-87
2022/12/02 07:33:14;;;;;;;72.00;37.35;;;11.10;56.10;;;;;;4904172;29;20036;-86
2022/12/02 07:35:40;;;;;;;79.97;41.38;;;11.20;55.90;;;;;;4900847;29;20035;-85
2022/12/02 07:38:06;;;;;;;79.80;40.28;;;11.30;55.90;;;;;;4918245;29;20044;-87
2022/12/02 07:40:31;;;;;;;70.95;35.30;;;11.40;55.50;;;;;;4918515;29;20034;-88
2022/12/02 07:42:57;;;;;;;81.10;42.60;;;11.50;55.40;;;;;;4918208;29;20027;-87
2022/12/02 07:45:23;;;;;;;68.70;36.28;;;11.60;55.30;;;;;;4901153;29;20028;-88
2022/12/02 07:47:48;;;;;;;103.28;47.58;;;11.60;55.10;;;;;;4900906;29;20095;-88
2022/12/02 07:53:01;;;;;;;107.55;46.80;;;11.60;55.20;;;;;;4914158;29;20488;-89
2022/12/02 07:55:27;;;;;;;96.28;42.85;;;11.40;55.70;;;;;;4900972;29;20036;-89
2022/12/02 07:57:53;;;;;;;92.03;42.15;;;11.30;56.10;;;;;;4900987;29;20395;-89
2022/12/02 08:00:22;;;;;;;61.47;32.40;;;11.30;56.30;;;;;;4901001;29;20353;-89
2022/12/02 08:02:48;;;;;;;72.55;37.80;;;11.50;56.20;;;;;;4900761;29;20448;-89
2022/12/02 08:05:14;;;;;;;100.93;56.28;;;11.60;55.60;;;;;;4900557;29;20036;-88
2022/12/02 08:07:41;;;;;;;78.65;45.80;;;11.80;55.50;;;;;;4900450;29;20040;-90
2022/12/02 08:10:08;;;;;;;57.70;33.70;;;12.00;55.30;;;;;;4900523;29;20060;-90
2022/12/02 08:12:34;;;;;;;63.97;35.72;;;12.20;55.00;;;;;;4900616;29;20035;-90
2022/12/02 08:15:19;;;;;;;65.95;38.75;;;12.30;54.80;;;;;;4901121;29;20103;-89
2022/12/02 08:17:45;;;;;;;61.90;37.97;;;12.30;54.90;;;;;;4900013;29;20063;-90
2022/12/02 08:20:12;;;;;;;65.15;39.03;;;12.20;54.80;;;;;;4902793;29;20039;-90
2022/12/02 08:22:37;;;;;;;54.83;34.10;;;12.20;55.20;;;;;;4904192;29;20032;-90
2022/12/02 08:25:04;;;;;;;51.25;31.45;;;12.30;55.00;;;;;;4904143;29;20027;-89
2022/12/02 08:27:29;;;;;;;48.60;27.85;;;12.30;54.90;;;;;;4904257;29;20122;-89
2022/12/02 08:29:55;;;;;;;45.20;25.73;;;12.30;54.90;;;;;;4904433;29;20116;-89
2022/12/02 08:32:21;;;;;;;46.33;27.50;;;12.40;54.70;;;;;;4904359;29;20028;-89
2022/12/02 08:34:48;;;;;;;44.17;26.40;;;12.30;54.50;;;;;;4903967;29;20479;-89
2022/12/02 08:37:14;;;;;;;44.13;26.88;;;12.30;54.50;;;;;;4921353;29;20107;-89
2022/12/02 08:39:42;;;;;;;66.18;36.53;;;12.40;54.50;;;;;;4903956;29;20117;-89
2022/12/02 08:42:08;;;;;;;45.25;26.90;;;12.50;54.70;;;;;;4904115;29;20052;-88
2022/12/02 08:44:34;;;;;;;139.27;67.65;;;12.60;54.30;;;;;;4904402;29;20071;-90
2022/12/02 08:47:09;;;;;;;50.72;29.65;;;12.50;54.30;;;;;;4904058;29;20032;-89
2022/12/02 08:49:43;;;;;;;49.30;28.27;;;12.70;54.50;;;;;;4903647;29;20079;-89
2022/12/02 08:52:09;;;;;;;128.63;65.43;;;12.80;53.90;;;;;;4904123;29;20399;-90
2022/12/02 08:54:35;;;;;;;61.65;35.92;;;12.70;53.60;;;;;;4903724;29;20033;-90
2022/12/02 08:57:04;;;;;;;46.28;27.20;;;12.70;53.90;;;;;;4903294;29;20051;-88
2022/12/02 08:59:30;;;;;;;53.85;31.65;;;12.70;53.70;;;;;;4904642;29;20038;-89
2022/12/02 09:01:56;;;;;;;45.08;24.88;;;12.80;53.50;;;;;;4904909;29;20388;-88
2022/12/02 09:04:21;;;;;;;53.45;31.73;;;12.70;53.50;;;;;;4904739;29;20020;-88
2022/12/02 09:06:47;;;;;;;45.45;27.42;;;12.90;53.50;;;;;;4903992;29;20404;-89
2022/12/02 09:09:13;;;;;;;52.40;31.80;;;12.70;53.40;;;;;;4904556;29;20063;-88
2022/12/02 09:11:46;;;;;;;59.13;33.95;;;12.50;53.50;;;;;;4904338;29;20028;-88
2022/12/02 09:14:12;;;;;;;64.97;38.88;;;12.60;53.30;;;;;;4904244;29;20028;-89
2022/12/02 09:16:37;;;;;;;45.33;25.50;;;12.50;53.50;;;;;;4904665;29;20024;-88
2022/12/02 09:19:03;;;;;;;56.13;33.65;;;12.60;53.80;;;;;;4904753;29;20483;-88
2022/12/02 09:21:29;;;;;;;42.20;26.73;;;12.70;53.70;;;;;;4904471;29;20056;-89
2022/12/02 09:23:54;;;;;;;34.20;21.00;;;12.90;53.40;;;;;;4903615;29;20467;-90
2022/12/02 09:26:20;;;;;;;53.15;24.65;;;13.10;53.40;;;;;;4903433;29;20060;-88
2022/12/02 09:28:46;;;;;;;42.08;24.25;;;13.30;53.00;;;;;;4903339;29;20501;-88
2022/12/02 09:31:21;;;;;;;40.78;23.75;;;13.40;53.00;;;;;;4902730;29;20072;-88
2022/12/02 09:33:48;;;;;;;40.65;25.23;;;13.30;52.30;;;;;;4903463;29;20028;-88
2022/12/02 09:36:20;;;;;;;33.22;21.13;;;13.00;53.10;;;;;;4902760;29;20032;-88
2022/12/02 09:38:46;;;;;;;37.35;21.42;;;13.10;53.10;;;;;;4902929;29;20472;-90
2022/12/02 09:41:18;;;;;;;33.25;20.88;;;13.30;52.70;;;;;;4903099;29;20034;-89
2022/12/02 09:43:48;;;;;;;35.42;21.92;;;13.50;52.30;;;;;;4902744;29;20032;-88
2022/12/02 09:46:32;;;;;;;42.60;25.40;;;13.60;51.70;;;;;;4902807;29;20027;-90
2022/12/02 09:49:33;;;;;;;50.03;27.02;;;13.20;52.30;;;;;;4902644;29;20040;-89
2022/12/02 09:52:16;;;;;;;39.97;22.88;;;12.40;53.40;;;;;;4902708;29;20027;-89
2022/12/02 09:54:42;;;;;;;31.85;18.45;;;12.40;54.20;;;;;;4902581;29;20028;-89
2022/12/02 09:57:25;;;;;;;33.30;18.60;;;12.70;53.80;;;;;;4901832;29;20098;-89
2022/12/02 10:00:21;;;;;;;29.67;17.75;;;12.90;53.20;;;;;;4902583;29;20028;-88
2022/12/02 10:05:43;;;;;;;30.77;17.95;;;13.10;52.60;;;;;;4919428;29;20507;-89
2022/12/02 10:08:35;;;;;;;30.67;18.05;;;13.10;51.60;;;;;;4902646;29;20067;-90
2022/12/02 10:11:47;;;;;;;27.83;16.70;;;13.00;51.70;;;;;;4902467;29;20502;-91
2022/12/02 10:14:14;;;;;;;35.58;16.90;;;12.90;52.10;;;;;;4902361;29;20035;-89
2022/12/02 10:16:40;;;;;;;29.13;17.55;;;12.60;52.60;;;;;;4902190;29;20035;-91
2022/12/02 10:19:31;;;;;;;33.58;18.58;;;12.80;52.70;;;;;;4902454;29;20114;-89
2022/12/02 10:21:57;;;;;;;33.58;20.25;;;13.20;51.90;;;;;;4902090;29;20032;-89
2022/12/02 10:24:49;;;;;;;29.77;19.48;;;13.30;51.30;;;;;;4902086;29;20036;-89
2022/12/02 10:27:31;;;;;;;46.17;24.67;;;13.20;50.90;;;;;;4899337;29;20040;-90
2022/12/02 10:30:18;;;;;;;29.23;17.70;;;13.30;51.30;;;;;;4902053;29;20063;-89
2022/12/02 10:33:03;;;;;;;30.42;17.60;;;13.50;51.20;;;;;;4902152;29;20036;-89
2022/12/02 10:35:47;;;;;;;31.95;18.33;;;13.50;50.80;;;;;;4901932;29;20498;-87
2022/12/02 10:38:40;;;;;;;35.55;20.98;;;13.30;51.10;;;;;;4901929;29;20476;-89
2022/12/02 10:41:31;;;;;;;32.67;19.67;;;13.30;51.20;;;;;;4902090;29;20083;-88
2022/12/02 10:44:17;;;;;;;30.05;17.88;;;13.30;51.40;;;;;;4901814;29;20036;-92
2022/12/02 10:46:43;;;;;;;35.35;17.95;;;13.40;51.70;;;;;;4901852;29;20028;-88
2022/12/02 10:49:33;;;;;;;29.73;19.60;;;13.30;51.40;;;;;;4901653;29;20032;-88
2022/12/02 10:52:09;;;;;;;29.80;18.05;;;13.40;51.40;;;;;;4900185;29;20052;-87
2022/12/02 10:54:38;;;;;;;37.58;18.95;;;13.40;51.30;;;;;;4901617;29;20040;-89
2022/12/02 10:57:05;;;;;;;30.83;17.88;;;13.40;51.90;;;;;;4901624;29;20032;-88
2022/12/02 10:59:32;;;;;;;28.38;17.90;;;13.40;51.90;;;;;;4901521;29;20090;-88
2022/12/02 11:01:58;;;;;;;30.13;18.45;;;13.40;51.30;;;;;;4901629;29;20036;-87
2022/12/02 11:04:24;;;;;;;30.15;17.65;;;13.40;51.80;;;;;;4901433;29;20039;-88
2022/12/02 11:06:52;;;;;;;33.78;20.48;;;13.50;51.30;;;;;;4901353;29;20032;-88
2022/12/02 11:09:21;;;;;;;30.05;18.33;;;13.70;51.30;;;;;;4901158;29;20123;-87
2022/12/02 11:11:48;;;;;;;31.17;18.85;;;13.80;51.00;;;;;;4901806;29;20032;-88
2022/12/02 11:14:37;;;;;;;33.03;20.95;;;13.60;51.00;;;;;;4901413;29;20488;-88
2022/12/02 11:17:07;;;;;;;33.25;18.80;;;13.60;51.10;;;;;;4900980;29;20028;-88
2022/12/02 11:19:32;;;;;;;;;;;13.50;51.50;;;;;;4901532;29;20031;-88
2022/12/02 11:21:58;;;;;;;41.97;23.80;;;13.60;50.80;;;;;;4901335;29;19907;-88
2022/12/02 11:24:26;;;;;;;33.88;20.38;;;13.50;50.90;;;;;;4901432;29;20028;-87
2022/12/02 11:26:58;;;;;;;35.45;22.20;;;13.50;50.80;;;;;;4901348;29;20102;-88
2022/12/02 11:29:31;;;;;;;46.03;24.50;;;13.30;52.00;;;;;;4900841;29;20099;-88
2022/12/02 11:32:25;;;;;;;34.17;20.02;;;13.30;51.80;;;;;;4901399;29;20024;-88
2022/12/02 11:34:56;;;;;;;32.97;20.05;;;12.70;51.80;;;;;;4900847;29;20032;-87
2022/12/02 11:37:25;;;;;;;35.38;21.88;;;12.30;52.90;;;;;;4900965;29;20039;-87
2022/12/02 11:40:25;;;;;;;43.50;24.02;;;12.40;52.80;;;;;;4900751;29;20400;-88
2022/12/02 11:42:51;;;;;;;38.53;22.93;;;12.50;52.20;;;;;;4900521;29;20456;-87
2022/12/02 11:45:20;;;;;;;36.38;22.38;;;12.50;52.50;;;;;;4900761;29;20114;-88
2022/12/02 11:47:57;;;;;;;34.53;20.33;;;12.50;52.90;;;;;;4900883;29;20423;-88
2022/12/02 11:50:39;;;;;;;33.33;19.60;;;12.40;52.90;;;;;;4900855;29;20028;-87
2022/12/02 11:53:16;;;;;;;33.88;18.75;;;12.30;53.30;;;;;;4900723;29;20028;-90
2022/12/02 11:55:45;;;;;;;27.35;17.20;;;12.20;53.20;;;;;;4900219;29;20063;-88
2022/12/02 11:58:25;;;;;;;32.47;18.35;;;11.90;53.30;;;;;;4900589;29;20106;-89
2022/12/02 12:01:06;;;;;;;29.42;19.33;;;11.90;53.70;;;;;;4900677;29;20088;-87
2022/12/02 12:03:33;;;;;;;32.83;19.92;;;12.30;53.40;;;;;;4901063;29;20028;-88
2022/12/02 12:06:10;;;;;;;32.47;19.65;;;12.30;52.90;;;;;;4900554;29;20032;-89
2022/12/02 12:08:43;;;;;;;35.70;19.45;;;12.40;53.20;;;;;;4900572;29;20036;-89
2022/12/02 12:11:25;;;;;;;34.03;19.60;;;12.50;52.40;;;;;;4901006;29;20020;-88
2022/12/02 12:14:03;;;;;;;32.30;19.52;;;12.60;52.10;;;;;;4901028;29;20064;-90
2022/12/02 12:16:34;;;;;;;33.00;18.42;;;12.20;52.50;;;;;;4900315;29;20356;-87
2022/12/02 12:19:23;;;;;;;30.83;18.58;;;12.10;52.80;;;;;;4900732;29;20380;-88
2022/12/02 12:21:52;;;;;;;31.00;19.42;;;12.20;52.80;;;;;;4900285;29;20032;-87
2022/12/02 12:24:22;;;;;;;31.38;19.13;;;12.50;52.50;;;;;;4900467;29;20032;-89
2022/12/02 12:27:01;;;;;;;33.00;19.10;;;12.50;52.10;;;;;;4900739;29;20028;-88
2022/12/02 12:29:30;;;;;;;32.20;19.20;;;12.20;52.70;;;;;;4901237;29;20044;-87
2022/12/02 12:31:56;;;;;;;34.63;20.53;;;12.10;53.10;;;;;;4900375;29;20384;-88
2022/12/02 12:34:22;;;;;;;34.35;20.65;;;12.20;53.50;;;;;;4900307;29;20028;-88
2022/12/02 12:36:48;;;;;;;34.85;20.35;;;12.20;53.30;;;;;;4900258;29;20028;-88
2022/12/02 12:39:15;;;;;;;40.78;21.48;;;12.10;53.60;;;;;;4900462;29;20033;-88
2022/12/02 12:41:42;;;;;;;39.85;23.10;;;12.10;53.60;;;;;;4900410;29;20032;-88
2022/12/02 12:44:07;;;;;;;40.35;22.55;;;12.40;53.80;;;;;;4900106;29;20036;-87
2022/12/02 12:46:33;;;;;;;40.08;23.38;;;12.40;53.00;;;;;;4900293;29;20031;-88
2022/12/02 12:48:59;;;;;;;35.25;21.73;;;12.30;53.10;;;;;;4900301;29;20036;-88
2022/12/02 12:51:25;;;;;;;36.90;21.05;;;12.10;53.80;;;;;;4900254;29;20028;-87
2022/12/02 12:53:51;;;;;;;36.67;20.80;;;12.20;53.50;;;;;;4900190;29;20028;-88
2022/12/02 12:56:17;;;;;;;37.42;22.48;;;12.20;53.10;;;;;;4900104;29;20489;-89
2022/12/02 12:58:42;;;;;;;35.15;21.38;;;12.00;53.00;;;;;;4899983;29;20052;-87
2022/12/02 13:01:08;;;;;;;29.58;18.00;;;11.60;54.30;;;;;;4900341;29;20059;-88
2022/12/02 13:03:34;;;;;;;35.50;18.95;;;11.40;54.50;;;;;;4900021;29;20475;-94
2022/12/02 13:06:00;;;;;;;31.40;20.05;;;11.70;54.90;;;;;;4900198;29;20028;-88
2022/12/02 13:08:27;;;;;;;32.42;19.58;;;12.10;54.40;;;;;;4903159;29;20040;-87
2022/12/02 13:10:53;;;;;;;35.97;18.92;;;12.50;53.70;;;;;;4903475;29;20489;-87
2022/12/02 13:13:19;;;;;;;32.58;19.13;;;12.70;53.40;;;;;;4903430;29;20043;-87
2022/12/02 13:15:45;;;;;;;30.45;19.30;;;12.50;53.30;;;;;;4902838;29;20027;-95
2022/12/02 13:18:10;;;;;;;31.88;18.83;;;12.50;53.50;;;;;;4903670;29;20039;-87
2022/12/02 13:20:36;;;;;;;34.17;20.90;;;12.70;53.20;;;;;;4903365;29;20024;-88
2022/12/02 13:23:02;;;;;;;31.75;18.67;;;12.90;52.60;;;;;;4903646;29;20120;-88
2022/12/02 13:28:51;;;;;;;35.47;19.83;;;13.00;52.40;;;;;;4920823;29;20066;-88
2022/12/02 13:31:46;;;;;;;34.40;19.33;;;12.90;52.80;;;;;;4919657;23;20047;-93
2022/12/02 14:11:04;;;;;;;32.22;19.45;;;11.20;56.30;;;;;;6104433;23;20138;-91
2022/12/02 14:14:10;;;;;;;35.83;19.52;;;11.10;56.50;;;;;;6078312;23;20042;-92
2022/12/02 14:16:36;;;;;;;32.72;18.88;;;11.20;56.20;;;;;;6068872;23;20015;-94
2022/12/02 14:19:02;;;;;;;34.65;20.20;;;11.50;55.70;;;;;;6045469;23;20015;-88
2022/12/02 14:21:43;;;;;;;34.60;19.95;;;11.10;56.80;;;;;;6075561;23;20034;-92